Time;durP1;ratioP1;P1;durP2;ratioP2;P2;SDS_P1;SDS_P2;PMS_P1;PMS_P2;Temp;Humidity;BMP_temperature;BMP_pressure;BME280_temperature;BME280_humidity;BME280_pressure;Samples;Min_cycle;Max_cycle;Signal;HPM_P1;HPM_P2
2022/05/26 00:01:53;;;;;;;28.50;9.77;;;14.00;99.90;;;;;;5045703;28;20064;-52
2022/05/26 00:04:19;;;;;;;28.42;10.13;;;14.00;99.90;;;;;;5055347;28;20049;-50
2022/05/26 00:06:45;;;;;;;30.00;10.23;;;14.00;99.90;;;;;;5052896;28;20038;-50
2022/05/26 00:09:11;;;;;;;27.23;10.00;;;13.90;99.90;;;;;;5037214;28;20052;-51
2022/05/26 00:11:38;;;;;;;37.20;10.55;;;13.80;99.90;;;;;;5043098;28;20080;-51
2022/05/26 00:14:09;;;;;;;28.05;10.40;;;13.80;99.90;;;;;;5057193;28;20611;-54
2022/05/26 00:16:43;;;;;;;30.65;10.63;;;13.80;99.90;;;;;;5062006;28;20240;-54
2022/05/26 00:19:10;;;;;;;29.58;10.05;;;13.80;99.90;;;;;;5061865;28;20056;-53
2022/05/26 00:21:36;;;;;;;33.65;12.68;;;13.80;99.90;;;;;;5056192;28;20061;-51
2022/05/26 00:24:02;;;;;;;28.85;10.27;;;13.70;99.90;;;;;;5062214;28;20080;-53
2022/05/26 00:26:28;;;;;;;27.95;9.48;;;13.70;99.90;;;;;;5052898;28;20095;-53
2022/05/26 00:28:54;;;;;;;32.58;10.13;;;13.70;99.90;;;;;;5024505;28;20045;-53
2022/05/26 00:31:20;;;;;;;32.53;9.70;;;13.60;99.90;;;;;;5045233;28;20146;-53
2022/05/26 00:33:46;;;;;;;30.10;10.07;;;13.70;99.90;;;;;;5061750;28;20485;-55
2022/05/26 00:36:14;;;;;;;32.78;10.65;;;13.60;99.90;;;;;;5061672;28;20071;-53
2022/05/26 00:38:41;;;;;;;29.17;9.35;;;13.50;99.90;;;;;;5050678;28;20052;-53
2022/05/26 00:41:10;;;;;;;32.45;10.43;;;13.50;99.90;;;;;;5046355;28;20044;-50
2022/05/26 00:43:42;;;;;;;38.67;10.75;;;13.50;99.90;;;;;;5060616;28;20033;-52
2022/05/26 00:46:18;;;;;;;32.00;9.85;;;13.60;99.90;;;;;;5061881;28;20052;-54
2022/05/26 00:48:52;;;;;;;36.08;9.38;;;13.50;99.90;;;;;;5060642;28;20392;-54
2022/05/26 00:51:22;;;;;;;34.33;9.52;;;13.50;99.90;;;;;;5061392;28;20103;-53
2022/05/26 00:53:53;;;;;;;30.75;9.18;;;13.40;99.90;;;;;;5059648;28;20094;-50
2022/05/26 00:56:26;;;;;;;33.53;8.63;;;13.50;99.90;;;;;;5058165;28;20048;-53
2022/05/26 00:58:58;;;;;;;32.72;8.73;;;13.60;99.90;;;;;;5040261;28;20061;-53
2022/05/26 01:01:24;;;;;;;;;;;13.50;99.90;;;;;;5032996;28;20046;-52
2022/05/26 01:03:57;;;;;;;29.67;7.93;;;13.50;99.90;;;;;;5023722;28;19999;-54
2022/05/26 01:06:25;;;;;;;37.38;8.75;;;13.50;99.90;;;;;;5035722;28;20049;-52
2022/05/26 01:08:55;;;;;;;35.28;10.10;;;13.50;99.90;;;;;;5040428;28;20037;-53
2022/05/26 01:11:23;;;;;;;35.28;9.02;;;13.60;99.90;;;;;;5034927;28;20078;-54
2022/05/26 01:13:53;;;;;;;28.45;9.13;;;13.60;99.90;;;;;;5040003;28;20048;-52
2022/05/26 01:16:34;;;;;;;37.58;9.20;;;13.60;99.90;;;;;;5030287;28;20034;-54
2022/05/26 01:19:39;;;;;;;26.58;7.28;;;13.50;99.90;;;;;;5020746;28;20101;-53
2022/05/26 01:22:30;;;;;;;33.90;9.20;;;13.50;99.90;;;;;;5020491;28;20050;-54
2022/05/26 01:25:13;;;;;;;33.67;8.13;;;13.60;99.90;;;;;;5021280;28;20391;-51
2022/05/26 01:27:45;;;;;;;33.05;7.90;;;13.50;99.90;;;;;;5034410;28;20126;-51
2022/05/26 01:30:25;;;;;;;30.13;7.30;;;13.50;99.90;;;;;;5040553;28;20042;-53
2022/05/26 01:33:21;;;;;;;31.20;7.53;;;13.60;99.90;;;;;;5021307;28;20580;-53
2022/05/26 01:36:10;;;;;;;30.33;8.00;;;13.50;99.90;;;;;;5021377;28;20069;-54
2022/05/26 01:38:56;;;;;;;26.63;6.35;;;13.60;99.90;;;;;;5007963;28;20065;-54
2022/05/26 01:41:46;;;;;;;30.10;6.80;;;13.50;99.90;;;;;;5029774;28;20057;-53
2022/05/26 01:44:46;;;;;;;20.90;6.95;;;13.50;99.90;;;;;;5015073;28;20062;-54
2022/05/26 01:47:29;;;;;;;31.08;7.20;;;13.50;99.90;;;;;;5019083;28;20058;-54
2022/05/26 01:50:14;;;;;;;27.33;7.88;;;13.50;99.90;;;;;;5019882;28;20097;-53
2022/05/26 01:52:54;;;;;;;30.45;7.40;;;13.50;99.90;;;;;;5019322;28;20052;-53
2022/05/26 01:55:43;;;;;;;24.50;6.95;;;13.50;99.90;;;;;;5027597;28;20493;-53
2022/05/26 01:58:15;;;;;;;26.80;7.65;;;13.50;99.90;;;;;;5033846;28;20050;-51
2022/05/26 02:00:41;;;;;;;;;;;13.50;99.90;;;;;;5041305;28;20057;-54
2022/05/26 02:03:16;;;;;;;25.05;7.38;;;13.60;99.90;;;;;;5054218;28;19927;-53
2022/05/26 02:05:47;;;;;;;31.60;8.82;;;13.50;99.90;;;;;;5039487;28;20046;-53
2022/05/26 02:08:24;;;;;;;30.20;7.50;;;13.50;99.90;;;;;;5048856;28;20125;-55
2022/05/26 02:10:59;;;;;;;33.05;8.60;;;13.50;99.90;;;;;;5052879;28;20037;-53
2022/05/26 02:13:41;;;;;;;24.77;8.25;;;13.40;99.90;;;;;;5039121;28;20045;-53
2022/05/26 02:16:22;;;;;;;23.33;7.75;;;13.40;99.90;;;;;;5046100;28;20065;-54
2022/05/26 02:19:07;;;;;;;30.70;6.80;;;13.50;99.90;;;;;;5059272;28;20432;-54
2022/05/26 02:21:44;;;;;;;28.23;6.80;;;13.50;99.90;;;;;;5059563;28;20068;-54
2022/05/26 02:24:21;;;;;;;26.77;6.57;;;13.40;99.90;;;;;;5059985;28;20049;-54
2022/05/26 02:26:46;;;;;;;26.48;6.63;;;13.40;99.90;;;;;;5058716;28;20037;-52
2022/05/26 02:31:57;;;;;;;29.45;7.53;;;13.40;99.90;;;;;;5055939;28;20075;-52
2022/05/26 02:34:25;;;;;;;31.23;8.60;;;13.30;99.90;;;;;;5055389;28;20088;-51
2022/05/26 02:36:53;;;;;;;24.00;6.97;;;13.20;99.90;;;;;;5039610;28;20045;-53
2022/05/26 02:39:19;;;;;;;21.65;6.25;;;13.30;99.90;;;;;;5041811;28;20044;-52
2022/05/26 02:41:45;;;;;;;21.05;5.80;;;13.20;99.90;;;;;;5035469;28;20129;-53
2022/05/26 02:44:11;;;;;;;19.63;5.93;;;13.20;99.90;;;;;;5054612;28;20049;-54
2022/05/26 02:47:04;;;;;;;22.35;5.32;;;13.10;99.90;;;;;;5059362;28;20041;-55
2022/05/26 02:49:46;;;;;;;21.65;5.15;;;13.10;99.90;;;;;;5059337;28;20051;-54
2022/05/26 02:52:31;;;;;;;22.23;5.07;;;13.20;99.90;;;;;;5058373;28;20045;-53
2022/05/26 02:55:29;;;;;;;17.48;4.68;;;13.10;99.90;;;;;;5059226;28;20048;-54
2022/05/26 02:58:29;;;;;;;20.08;4.40;;;13.10;99.90;;;;;;5059163;28;20108;-53
2022/05/26 03:01:17;;;;;;;18.60;4.15;;;13.10;99.90;;;;;;5057213;28;20072;-53
2022/05/26 03:03:48;;;;;;;16.98;4.55;;;13.00;99.90;;;;;;5055638;28;20045;-53
2022/05/26 03:06:22;;;;;;;19.63;4.70;;;13.00;99.90;;;;;;5051983;28;20402;-54
2022/05/26 03:08:48;;;;;;;17.67;4.50;;;12.90;99.90;;;;;;5020570;28;20120;-53
2022/05/26 03:11:19;;;;;;;18.83;4.10;;;12.90;99.90;;;;;;5043044;28;20044;-53
2022/05/26 03:13:45;;;;;;;15.87;3.80;;;12.90;99.90;;;;;;5020093;28;20124;-54
2022/05/26 03:16:11;;;;;;;15.70;3.83;;;12.80;99.90;;;;;;5039048;28;20296;-54
2022/05/26 03:18:37;;;;;;;13.57;3.45;;;12.80;99.90;;;;;;5048252;28;20092;-55
2022/05/26 03:21:05;;;;;;;14.10;4.30;;;12.80;99.90;;;;;;5058629;28;20044;-54
2022/05/26 03:23:31;;;;;;;19.50;3.85;;;12.80;99.90;;;;;;5058615;28;20041;-51
2022/05/26 03:25:58;;;;;;;15.02;4.05;;;12.80;99.90;;;;;;5058240;28;20098;-50
2022/05/26 03:28:25;;;;;;;14.00;4.82;;;12.90;99.90;;;;;;5058594;28;20071;-53
2022/05/26 03:30:51;;;;;;;16.60;4.20;;;12.70;99.90;;;;;;5057604;28;20083;-54
2022/05/26 03:33:17;;;;;;;16.52;3.75;;;12.80;99.90;;;;;;5053978;28;20029;-52
2022/05/26 03:41:18;;;;;;;13.20;4.03;;;12.80;99.90;;;;;;5039368;28;20076;-53
2022/05/26 03:43:46;;;;;;;;;;;12.80;99.90;;;;;;5055332;28;20033;-53
2022/05/26 03:46:13;;;;;;;13.05;3.08;;;12.80;99.90;;;;;;5058748;28;19924;-53
2022/05/26 03:48:40;;;;;;;10.80;3.28;;;12.80;99.90;;;;;;5057318;28;20568;-53
2022/05/26 03:51:06;;;;;;;23.90;4.25;;;12.80;99.90;;;;;;5040158;28;20531;-53
2022/05/26 03:53:33;;;;;;;13.05;3.50;;;12.80;99.90;;;;;;5056507;28;20056;-54
2022/05/26 03:56:00;;;;;;;11.05;3.03;;;12.70;99.90;;;;;;5032470;28;20079;-52
2022/05/26 03:58:26;;;;;;;15.25;3.40;;;12.70;99.90;;;;;;5058367;28;20037;-53
2022/05/26 04:00:52;;;;;;;16.48;3.30;;;12.70;99.90;;;;;;5056836;28;20049;-53
2022/05/26 04:03:18;;;;;;;10.88;3.05;;;12.70;99.90;;;;;;5041998;28;20041;-54
2022/05/26 04:05:44;;;;;;;11.98;2.80;;;12.70;99.90;;;;;;5053973;28;20093;-53
2022/05/26 04:08:10;;;;;;;11.10;2.78;;;12.60;99.90;;;;;;5025334;28;20054;-51
2022/05/26 04:10:36;;;;;;;11.77;2.63;;;12.60;99.90;;;;;;5037987;28;20446;-54
2022/05/26 04:13:01;;;;;;;11.18;2.13;;;12.70;99.90;;;;;;5053480;28;20044;-52
2022/05/26 04:15:27;;;;;;;11.60;2.30;;;12.70;99.90;;;;;;5052395;28;20044;-53
2022/05/26 04:17:53;;;;;;;11.07;2.58;;;12.70;99.90;;;;;;5050338;28;20037;-53
2022/05/26 04:20:22;;;;;;;14.98;2.67;;;12.60;99.90;;;;;;5049029;28;20049;-52
2022/05/26 04:22:47;;;;;;;10.30;2.50;;;12.60;99.90;;;;;;5056749;28;20091;-50
2022/05/26 04:25:14;;;;;;;10.25;2.20;;;12.60;99.90;;;;;;5058049;28;20037;-53
2022/05/26 04:27:40;;;;;;;12.82;2.15;;;12.50;99.90;;;;;;5057841;28;20191;-53
2022/05/26 04:30:08;;;;;;;14.50;2.92;;;12.60;99.90;;;;;;5057251;28;20045;-51
2022/05/26 04:32:34;;;;;;;11.70;2.65;;;12.70;99.90;;;;;;5058101;28;20044;-51
2022/05/26 04:34:59;;;;;;;11.63;2.72;;;12.60;99.90;;;;;;5056806;28;20128;-52
2022/05/26 04:37:26;;;;;;;8.90;1.85;;;12.70;99.90;;;;;;5049150;28;20512;-52
2022/05/26 04:39:55;;;;;;;10.68;2.20;;;12.70;99.90;;;;;;5056879;28;20504;-52
2022/05/26 04:42:22;;;;;;;12.25;2.70;;;12.80;99.90;;;;;;5043063;28;20077;-51
2022/05/26 04:44:49;;;;;;;12.05;2.20;;;12.80;99.90;;;;;;5039609;28;20045;-53
2022/05/26 04:47:17;;;;;;;10.07;2.25;;;12.80;99.90;;;;;;5041295;28;20050;-52
2022/05/26 04:49:44;;;;;;;8.82;2.00;;;12.90;99.90;;;;;;5056324;28;20053;-52
2022/05/26 04:52:13;;;;;;;12.43;2.05;;;12.80;99.90;;;;;;5041100;28;20042;-49
2022/05/26 04:54:40;;;;;;;8.25;2.10;;;12.80;99.90;;;;;;5021514;28;20125;-52
2022/05/26 04:57:06;;;;;;;8.20;1.65;;;12.80;99.90;;;;;;5038954;28;20045;-53
2022/05/26 04:59:33;;;;;;;12.10;2.45;;;12.90;99.90;;;;;;5057286;28;20159;-52
2022/05/26 05:02:00;;;;;;;12.35;2.45;;;13.10;99.90;;;;;;5060106;28;20041;-51
2022/05/26 05:04:26;;;;;;;12.90;2.10;;;13.20;99.90;;;;;;5060974;28;20100;-51
2022/05/26 05:06:53;;;;;;;11.60;1.90;;;13.20;99.90;;;;;;5056589;28;20091;-51
2022/05/26 05:09:18;;;;;;;7.50;1.65;;;13.30;99.90;;;;;;5040210;28;20059;-48
2022/05/26 05:11:45;;;;;;;9.50;1.58;;;13.40;99.90;;;;;;5047449;28;20119;-52
2022/05/26 05:14:11;;;;;;;9.85;2.55;;;13.50;99.90;;;;;;5060285;28;20045;-51
2022/05/26 05:16:45;;;;;;;11.52;2.08;;;13.50;99.90;;;;;;5046633;28;20116;-52
2022/05/26 05:19:17;;;;;;;9.52;1.83;;;13.50;99.90;;;;;;5040561;28;20045;-54
2022/05/26 05:21:58;;;;;;;7.82;1.85;;;13.50;99.90;;;;;;5042399;28;20060;-51
2022/05/26 05:24:28;;;;;;;7.32;1.50;;;13.60;99.90;;;;;;5061354;28;20113;-50
2022/05/26 05:27:10;;;;;;;7.90;1.83;;;13.60;99.90;;;;;;5048152;28;20561;-52
2022/05/26 05:29:38;;;;;;;8.00;1.40;;;13.70;99.90;;;;;;5020042;28;20053;-54
2022/05/26 05:32:16;;;;;;;10.50;2.75;;;13.80;99.90;;;;;;5020405;28;20081;-51
2022/05/26 05:34:45;;;;;;;9.52;1.77;;;13.70;99.90;;;;;;5056528;28;20275;-53
2022/05/26 05:37:11;;;;;;;9.13;1.70;;;13.90;99.90;;;;;;5057304;28;20056;-53
2022/05/26 05:39:38;;;;;;;8.75;1.98;;;14.00;99.90;;;;;;5055575;28;20045;-50
2022/05/26 05:42:04;;;;;;;10.55;2.05;;;14.00;99.90;;;;;;5051596;28;20389;-52
2022/05/26 05:44:30;;;;;;;8.38;1.85;;;14.10;99.90;;;;;;5048723;28;20037;-53
2022/05/26 05:46:57;;;;;;;11.57;1.45;;;14.10;99.90;;;;;;5036401;28;20052;-52
2022/05/26 05:49:29;;;;;;;8.52;1.65;;;14.20;99.90;;;;;;5036595;28;20463;-52
2022/05/26 05:52:02;;;;;;;7.25;1.15;;;14.20;99.90;;;;;;5039630;28;20396;-53
2022/05/26 05:54:31;;;;;;;11.60;2.08;;;14.20;99.90;;;;;;5022248;28;20219;-49
2022/05/26 05:56:57;;;;;;;8.07;2.13;;;14.20;99.90;;;;;;5055493;28;20546;-52
2022/05/26 05:59:23;;;;;;;13.85;2.38;;;14.30;99.90;;;;;;5055916;28;20077;-50
2022/05/26 06:01:49;;;;;;;7.82;1.42;;;14.30;99.90;;;;;;5056411;28;20104;-53
2022/05/26 06:04:15;;;;;;;7.57;1.75;;;14.30;99.90;;;;;;5055899;28;20045;-52
2022/05/26 06:06:42;;;;;;;9.80;1.80;;;14.40;99.90;;;;;;5056055;28;20037;-53
2022/05/26 06:09:13;;;;;;;10.25;1.77;;;14.40;99.90;;;;;;5055231;28;20044;-53
2022/05/26 06:11:43;;;;;;;9.75;2.17;;;14.50;99.90;;;;;;5056346;28;20068;-52
2022/05/26 06:14:08;;;;;;;8.43;1.33;;;14.50;99.90;;;;;;5047612;28;20037;-52
2022/05/26 06:16:34;;;;;;;9.85;1.70;;;14.60;99.90;;;;;;5044701;28;20117;-52
2022/05/26 06:19:00;;;;;;;11.82;1.88;;;14.70;99.90;;;;;;5052448;28;20041;-55
2022/05/26 06:21:26;;;;;;;6.80;1.38;;;14.70;99.90;;;;;;5017736;28;20056;-52
2022/05/26 06:23:56;;;;;;;11.05;1.60;;;14.80;99.90;;;;;;5040259;28;20503;-53
2022/05/26 06:26:26;;;;;;;12.07;1.63;;;14.90;99.90;;;;;;5033573;28;20069;-52
2022/05/26 06:31:37;;;;;;;7.22;1.50;;;14.90;99.90;;;;;;5055422;28;20059;-52
2022/05/26 06:37:15;;;;;;;9.60;1.80;;;14.70;99.90;;;;;;5008247;28;20053;-53
2022/05/26 06:39:42;;;;;;;9.95;1.73;;;14.70;99.90;;;;;;5016802;28;20045;-52
2022/05/26 06:42:10;;;;;;;7.47;1.35;;;14.60;99.90;;;;;;5055546;28;20052;-49
2022/05/26 06:44:44;;;;;;;7.95;1.67;;;14.40;99.90;;;;;;5037197;28;20087;-51
2022/05/26 06:47:12;;;;;;;8.43;1.70;;;14.40;99.90;;;;;;5054712;28;20052;-49
2022/05/26 06:49:40;;;;;;;7.32;1.30;;;14.40;99.90;;;;;;5051856;28;20108;-52
2022/05/26 06:52:07;;;;;;;10.52;2.38;;;14.70;99.90;;;;;;5038344;28;20147;-52
2022/05/26 06:54:36;;;;;;;10.60;1.60;;;14.90;99.90;;;;;;5055249;28;20316;-52
2022/05/26 06:57:02;;;;;;;8.57;1.90;;;14.90;99.90;;;;;;5054536;28;20045;-53
2022/05/26 06:59:28;;;;;;;12.65;2.30;;;14.90;99.90;;;;;;5054732;28;20092;-53
2022/05/26 07:01:53;;;;;;;8.43;1.40;;;14.90;99.90;;;;;;5044948;28;20068;-52
2022/05/26 07:04:19;;;;;;;11.43;2.90;;;14.80;99.90;;;;;;5054338;28;20037;-52
2022/05/26 07:06:54;;;;;;;8.68;1.67;;;14.60;99.90;;;;;;5049830;28;20079;-53
2022/05/26 07:09:21;;;;;;;6.53;1.50;;;14.60;99.90;;;;;;5048896;28;20507;-53
2022/05/26 07:11:47;;;;;;;8.15;1.67;;;14.50;99.90;;;;;;5051038;28;20056;-55
2022/05/26 07:14:13;;;;;;;10.48;1.95;;;14.50;99.90;;;;;;5054320;28;20064;-53
2022/05/26 07:16:40;;;;;;;11.25;2.08;;;14.50;99.90;;;;;;5054691;28;20426;-52
2022/05/26 07:19:07;;;;;;;9.00;1.52;;;14.40;99.90;;;;;;5054849;28;20053;-53
2022/05/26 07:21:33;;;;;;;10.82;1.80;;;14.40;99.90;;;;;;5054269;28;20390;-54
2022/05/26 07:23:59;;;;;;;8.90;2.45;;;14.50;99.90;;;;;;5054684;28;20053;-51
2022/05/26 07:26:25;;;;;;;10.27;2.10;;;14.70;99.90;;;;;;5048647;28;20049;-52
2022/05/26 07:28:51;;;;;;;8.95;1.95;;;14.70;99.90;;;;;;5024299;28;20540;-54
2022/05/26 07:31:18;;;;;;;12.45;2.17;;;14.70;99.90;;;;;;5054038;28;20083;-52
2022/05/26 07:33:44;;;;;;;6.57;1.95;;;14.80;99.90;;;;;;5054389;28;20069;-52
2022/05/26 07:41:16;;;;;;;8.45;1.73;;;15.00;99.90;;;;;;5042283;28;20068;-51
2022/05/26 07:41:41;;;;;;;8.02;1.65;;;15.10;99.90;;;;;;5043852;28;20072;-52
2022/05/26 07:44:07;;;;;;;8.68;1.63;;;15.10;99.90;;;;;;5053755;28;20114;-51
2022/05/26 07:46:32;;;;;;;8.18;1.50;;;15.10;99.90;;;;;;5038574;28;20407;-52
2022/05/26 07:48:58;;;;;;;7.35;1.80;;;15.20;99.90;;;;;;5034011;28;20050;-52
2022/05/26 07:51:24;;;;;;;6.90;1.67;;;15.30;99.90;;;;;;5033983;28;20049;-54
2022/05/26 07:53:50;;;;;;;6.80;1.48;;;15.30;99.90;;;;;;5034490;28;20524;-51
2022/05/26 07:56:17;;;;;;;8.18;1.67;;;15.30;99.90;;;;;;5049495;28;20036;-54
2022/05/26 07:58:43;;;;;;;8.85;1.73;;;15.30;99.90;;;;;;5036116;28;20053;-54
2022/05/26 08:01:10;;;;;;;8.50;1.60;;;15.40;99.90;;;;;;5051921;28;20052;-56
2022/05/26 08:03:38;;;;;;;12.70;2.10;;;15.40;99.90;;;;;;5053367;28;20049;-53
2022/05/26 08:06:05;;;;;;;8.02;1.48;;;15.50;99.90;;;;;;5051741;28;20410;-53
2022/05/26 08:08:32;;;;;;;7.07;1.42;;;15.40;99.90;;;;;;5032577;28;20034;-54
2022/05/26 08:10:58;;;;;;;5.63;1.27;;;15.40;99.90;;;;;;5016325;28;20075;-53
2022/05/26 08:13:23;;;;;;;9.32;1.50;;;15.50;99.90;;;;;;5033344;28;20045;-53
2022/05/26 08:15:49;;;;;;;6.32;1.40;;;15.40;99.90;;;;;;5038532;28;20396;-55
2022/05/26 08:18:16;;;;;;;9.25;2.10;;;15.40;99.90;;;;;;5049345;28;20067;-53
2022/05/26 08:20:42;;;;;;;5.57;1.30;;;15.40;99.90;;;;;;5034609;28;20107;-53
2022/05/26 08:23:07;;;;;;;7.68;1.40;;;15.50;99.90;;;;;;5034168;28;20041;-53
2022/05/26 08:25:34;;;;;;;9.48;1.55;;;15.50;99.90;;;;;;5044818;28;20340;-54
2022/05/26 08:28:00;;;;;;;7.13;2.05;;;15.70;99.90;;;;;;5054043;28;20491;-51
2022/05/26 08:30:26;;;;;;;7.47;1.60;;;15.70;99.90;;;;;;5053026;28;20049;-54
2022/05/26 08:32:53;;;;;;;9.02;1.45;;;16.10;99.90;;;;;;5036473;28;20045;-54
2022/05/26 08:35:19;;;;;;;10.27;1.70;;;16.00;99.90;;;;;;5052225;28;20044;-53
2022/05/26 08:37:45;;;;;;;9.55;1.92;;;16.20;99.90;;;;;;5053770;28;20094;-53
2022/05/26 08:40:29;;;;;;;7.53;1.35;;;16.20;99.90;;;;;;5047247;28;20053;-54
2022/05/26 08:42:55;;;;;;;9.98;1.38;;;16.10;99.90;;;;;;5037020;28;20560;-54
2022/05/26 08:45:21;;;;;;;8.35;1.30;;;16.30;99.90;;;;;;5055079;28;20108;-54
2022/05/26 08:47:49;;;;;;;13.55;1.75;;;16.30;99.90;;;;;;5024030;28;20067;-54
2022/05/26 08:50:24;;;;;;;8.07;1.73;;;16.30;99.90;;;;;;5058074;28;20103;-51
2022/05/26 08:52:57;;;;;;;6.63;1.52;;;16.50;99.90;;;;;;5041138;28;20517;-52
2022/05/26 08:55:42;;;;;;;6.30;2.20;;;16.40;99.90;;;;;;5046637;28;20452;-50
2022/05/26 08:58:27;;;;;;;6.25;1.50;;;16.10;99.90;;;;;;5060186;28;20058;-50
2022/05/26 09:00:53;;;;;;;4.90;0.93;;;16.20;99.90;;;;;;5059863;28;20072;-50
2022/05/26 09:03:29;;;;;;;6.07;1.15;;;16.30;99.90;;;;;;5060739;28;20044;-52
2022/05/26 09:06:03;;;;;;;9.48;1.45;;;16.60;99.90;;;;;;5059639;28;20052;-53
2022/05/26 09:14:00;;;;;;;7.50;1.70;;;16.50;99.90;;;;;;5047315;28;20047;-51
2022/05/26 09:16:29;;;;;;;8.63;1.33;;;16.30;99.90;;;;;;5059480;28;20063;-51
2022/05/26 09:19:11;;;;;;;9.45;1.20;;;16.40;99.90;;;;;;5060197;28;20040;-50
2022/05/26 09:21:37;;;;;;;10.35;1.38;;;16.60;99.90;;;;;;5059002;28;20045;-51
2022/05/26 09:24:38;;;;;;;5.65;1.10;;;17.00;99.90;;;;;;5048172;28;20056;-51
2022/05/26 09:27:21;;;;;;;3.33;0.95;;;16.90;99.90;;;;;;5043301;28;20041;-49
2022/05/26 09:29:47;;;;;;;8.90;1.25;;;17.00;99.90;;;;;;5060344;28;20037;-50
2022/05/26 09:32:17;;;;;;;6.40;1.48;;;17.10;99.90;;;;;;5060306;28;20071;-49
2022/05/26 09:35:14;;;;;;;6.07;1.20;;;17.20;99.90;;;;;;5057915;28;20068;-49
2022/05/26 09:37:45;;;;;;;5.80;0.90;;;17.50;99.90;;;;;;5026616;28;20537;-50
2022/05/26 09:40:16;;;;;;;7.57;1.00;;;17.40;99.90;;;;;;5039533;28;20105;-50
2022/05/26 09:42:43;;;;;;;5.65;1.33;;;17.30;99.90;;;;;;5051191;28;20052;-52
2022/05/26 09:45:14;;;;;;;5.65;0.85;;;17.20;99.90;;;;;;5054602;28;20446;-52
2022/05/26 09:47:53;;;;;;;7.10;1.08;;;17.10;99.90;;;;;;5057486;28;20124;-48
2022/05/26 09:50:35;;;;;;;6.30;0.90;;;16.90;99.90;;;;;;5022157;28;20046;-51
2022/05/26 09:53:03;;;;;;;6.13;1.10;;;16.70;99.90;;;;;;5040717;28;20464;-52
2022/05/26 09:55:32;;;;;;;6.72;1.67;;;16.90;99.90;;;;;;5054736;28;20037;-51
2022/05/26 09:58:11;;;;;;;5.95;1.35;;;17.10;99.90;;;;;;5059932;28;20060;-52
2022/05/26 10:00:43;;;;;;;7.40;1.10;;;17.00;99.90;;;;;;5057813;28;20060;-51
2022/05/26 10:03:16;;;;;;;7.57;1.38;;;16.90;99.90;;;;;;5059184;28;20106;-53
2022/05/26 10:06:09;;;;;;;8.75;1.48;;;17.00;99.90;;;;;;5027270;28;20053;-51
2022/05/26 10:08:53;;;;;;;5.65;1.20;;;17.00;99.90;;;;;;5038511;28;20041;-52
2022/05/26 10:11:42;;;;;;;5.60;1.25;;;16.90;99.90;;;;;;5039894;28;20497;-50
2022/05/26 10:14:24;;;;;;;6.20;0.90;;;17.20;99.90;;;;;;5038996;28;20049;-50
2022/05/26 10:17:18;;;;;;;7.85;2.05;;;17.50;99.90;;;;;;5057329;28;20537;-49
2022/05/26 10:20:22;;;;;;;7.65;1.40;;;17.10;99.90;;;;;;5059658;28;20127;-49
2022/05/26 10:22:59;;;;;;;6.70;1.00;;;17.20;99.90;;;;;;5040935;28;20094;-48
2022/05/26 10:25:33;;;;;;;5.10;1.10;;;17.10;99.90;;;;;;5044619;28;20041;-50
2022/05/26 10:28:18;;;;;;;5.97;1.13;;;16.90;99.90;;;;;;5065917;28;20043;-52
2022/05/26 10:30:47;;;;;;;7.30;1.33;;;17.00;99.90;;;;;;5036000;28;20051;-49
2022/05/26 10:33:31;;;;;;;5.32;1.13;;;17.00;99.90;;;;;;5059550;28;20122;-52
2022/05/26 10:36:05;;;;;;;6.28;1.30;;;17.00;99.90;;;;;;5056283;28;20563;-52
2022/05/26 10:38:34;;;;;;;7.03;1.20;;;17.10;99.90;;;;;;5055903;28;20497;-53
2022/05/26 10:41:19;;;;;;;7.25;1.27;;;17.30;99.90;;;;;;5058359;28;20072;-49
2022/05/26 10:44:01;;;;;;;7.20;2.13;;;17.20;99.90;;;;;;5054972;28;20037;-52
2022/05/26 10:46:29;;;;;;;5.80;1.52;;;17.40;99.90;;;;;;5054119;28;20432;-50
2022/05/26 10:49:09;;;;;;;6.60;1.35;;;17.80;99.90;;;;;;5057576;28;20330;-50
2022/05/26 10:51:46;;;;;;;4.03;1.30;;;17.80;99.90;;;;;;5056304;28;20049;-52
2022/05/26 10:54:32;;;;;;;5.40;1.40;;;17.70;99.90;;;;;;5056784;28;20037;-53
2022/05/26 10:57:04;;;;;;;7.30;1.77;;;17.60;99.90;;;;;;5054500;28;20047;-52
2022/05/26 10:59:36;;;;;;;10.18;1.88;;;17.50;99.90;;;;;;5057636;28;20057;-53
2022/05/26 11:02:40;;;;;;;9.45;1.50;;;17.30;99.90;;;;;;5058251;28;20053;-52
2022/05/26 11:05:32;;;;;;;8.30;2.63;;;17.70;99.90;;;;;;5014830;28;20072;-51
2022/05/26 11:08:28;;;;;;;7.72;1.85;;;17.90;99.90;;;;;;5012101;28;20113;-53
2022/05/26 11:11:09;;;;;;;9.25;1.83;;;17.70;99.90;;;;;;5034680;28;20060;-52
2022/05/26 11:13:47;;;;;;;6.93;1.75;;;18.20;99.90;;;;;;5041985;28;20094;-50
2022/05/26 11:19:43;;;;;;;8.05;1.38;;;18.50;99.90;;;;;;5039696;28;20045;-53
2022/05/26 11:22:11;;;;;;;9.35;1.50;;;18.30;99.90;;;;;;5038170;28;20075;-53
2022/05/26 11:24:38;;;;;;;7.07;1.23;;;18.00;99.90;;;;;;5057955;28;20512;-53
2022/05/26 11:27:13;;;;;;;5.53;1.30;;;17.70;99.90;;;;;;5038366;28;20132;-50
2022/05/26 11:29:49;;;;;;;7.50;1.65;;;17.70;99.90;;;;;;5056857;28;20110;-52
2022/05/26 11:38:21;;;;;;;6.68;1.92;;;17.30;99.90;;;;;;5057274;28;20071;-48
2022/05/26 11:40:53;;;;;;;8.45;1.48;;;17.40;99.90;;;;;;5037500;28;20049;-51
2022/05/26 11:43:53;;;;;;;7.53;1.25;;;17.40;99.90;;;;;;5036716;28;20037;-49
2022/05/26 11:46:53;;;;;;;5.53;1.27;;;17.30;99.90;;;;;;5037799;28;20054;-48
2022/05/26 11:49:57;;;;;;;5.85;1.33;;;17.40;99.90;;;;;;5043181;28;20037;-48
2022/05/26 11:52:45;;;;;;;8.20;1.83;;;17.70;99.90;;;;;;5034535;28;20072;-49
2022/05/26 11:55:26;;;;;;;16.83;8.23;;;17.60;99.90;;;;;;5056698;28;20044;-52
2022/05/26 11:57:54;;;;;;;9.35;1.90;;;17.30;99.90;;;;;;5041182;28;20101;-50
2022/05/26 12:00:40;;;;;;;8.45;1.42;;;17.40;99.90;;;;;;4998047;28;1099311;-50
2022/05/26 12:03:21;;;;;;;6.13;1.90;;;17.30;99.90;;;;;;5021000;28;20457;-51
2022/05/26 12:05:55;;;;;;;8.68;1.67;;;17.60;99.90;;;;;;5056299;28;20046;-50
2022/05/26 12:08:50;;;;;;;7.32;1.33;;;17.50;99.90;;;;;;5054804;28;20044;-50
2022/05/26 12:11:16;;;;;;;5.72;1.40;;;17.30;99.90;;;;;;5046412;28;20061;-50
2022/05/26 12:13:42;;;;;;;8.10;1.33;;;17.40;99.90;;;;;;5052996;28;20049;-52
2022/05/26 12:16:19;;;;;;;9.13;1.50;;;17.60;99.90;;;;;;5057230;28;20040;-53
2022/05/26 12:19:09;;;;;;;5.97;1.50;;;17.70;99.90;;;;;;5057010;28;20049;-52
2022/05/26 12:21:40;;;;;;;6.72;1.10;;;17.70;99.90;;;;;;5038223;28;20184;-52
2022/05/26 12:24:34;;;;;;;6.00;1.38;;;17.80;99.90;;;;;;5057985;28;20048;-50
2022/05/26 12:27:01;;;;;;;5.82;1.67;;;17.60;99.90;;;;;;5038176;28;20046;-52
2022/05/26 12:29:46;;;;;;;8.90;1.80;;;17.90;99.90;;;;;;5054173;28;20065;-52
2022/05/26 12:32:17;;;;;;;7.43;1.42;;;17.70;99.90;;;;;;5057312;28;20041;-49
2022/05/26 12:34:51;;;;;;;10.38;1.88;;;17.70;99.90;;;;;;5048089;28;20076;-52
2022/05/26 12:37:47;;;;;;;6.30;1.48;;;17.80;99.90;;;;;;5041038;28;20466;-51
2022/05/26 12:40:51;;;;;;;8.25;1.42;;;17.80;99.90;;;;;;5045656;28;20052;-52
2022/05/26 12:43:40;;;;;;;11.77;1.95;;;17.90;99.90;;;;;;5042336;28;20048;-52
2022/05/26 12:46:33;;;;;;;9.38;1.70;;;17.70;99.90;;;;;;5057838;28;20044;-51
2022/05/26 12:49:20;;;;;;;7.82;1.75;;;18.00;99.90;;;;;;5056729;28;20428;-50
2022/05/26 12:51:55;;;;;;;6.25;1.70;;;18.00;99.90;;;;;;5056695;28;20045;-54
2022/05/26 12:54:24;;;;;;;9.57;1.38;;;17.60;99.90;;;;;;5057805;28;20091;-53
2022/05/26 12:56:58;;;;;;;6.50;1.52;;;17.50;99.90;;;;;;5056427;28;20049;-49
2022/05/26 12:59:26;;;;;;;10.73;1.75;;;17.60;99.90;;;;;;5057134;28;20053;-49
2022/05/26 13:01:52;;;;;;;7.65;1.98;;;17.50;99.90;;;;;;5055778;28;20045;-52
2022/05/26 13:04:35;;;;;;;9.18;1.95;;;17.40;99.90;;;;;;5044364;28;20097;-49
2022/05/26 13:07:05;;;;;;;5.88;1.60;;;17.60;99.90;;;;;;5051362;28;20433;-52
2022/05/26 13:09:40;;;;;;;8.98;1.75;;;17.40;99.90;;;;;;5039736;28;20127;-53
2022/05/26 13:12:07;;;;;;;9.60;2.55;;;17.30;99.90;;;;;;5050944;28;20049;-52
2022/05/26 13:14:44;;;;;;;7.13;1.50;;;17.60;99.90;;;;;;5054228;28;20791;-52
2022/05/26 13:17:10;;;;;;;8.05;1.63;;;17.50;99.90;;;;;;5031248;28;20029;-54
2022/05/26 13:19:43;;;;;;;5.65;1.50;;;17.40;99.90;;;;;;5057638;28;20178;-54
2022/05/26 13:22:17;;;;;;;9.68;2.70;;;17.60;99.90;;;;;;5039793;28;20037;-52
2022/05/26 13:24:55;;;;;;;8.38;1.50;;;17.50;99.90;;;;;;5044362;28;20045;-51
2022/05/26 13:27:22;;;;;;;4.95;1.58;;;17.30;99.90;;;;;;5060920;28;20068;-51
2022/05/26 13:29:51;;;;;;;9.75;1.63;;;17.40;99.90;;;;;;5060671;28;20041;-51
2022/05/26 13:35:20;;;;;;;9.88;2.15;;;17.20;99.90;;;;;;5044382;28;20051;-52
2022/05/26 13:37:46;;;;;;;8.25;1.80;;;17.30;99.90;;;;;;5060621;28;20062;-52
2022/05/26 13:40:20;;;;;;;8.95;1.85;;;17.50;99.90;;;;;;5048686;28;20065;-53
2022/05/26 13:42:50;;;;;;;13.18;3.15;;;17.40;99.90;;;;;;5055401;28;20048;-52
2022/05/26 13:45:31;;;;;;;8.93;1.55;;;17.10;99.90;;;;;;5040708;28;20057;-49
2022/05/26 13:48:36;;;;;;;6.78;1.63;;;17.10;99.90;;;;;;5046457;28;20420;-50